createdAt,value
2022-10-30T00:00:23.251Z,25.10
2022-10-30T00:02:54.254Z,25.10
2022-10-30T00:05:25.102Z,25.20
2022-10-30T00:07:58.194Z,25.20
2022-10-30T00:10:28.355Z,25.20
2022-10-30T00:12:59.453Z,25.90
2022-10-30T00:15:29.668Z,25.20
2022-10-30T00:18:02.609Z,25.20
2022-10-30T00:20:32.661Z,25.10
2022-10-30T00:23:02.781Z,25.10
2022-10-30T00:25:32.805Z,25.20
2022-10-30T00:28:02.946Z,25.20
2022-10-30T00:30:33.576Z,25.20
2022-10-30T00:33:03.737Z,25.20
2022-10-30T00:35:34.348Z,25.20
2022-10-30T00:38:05.656Z,25.20
2022-10-30T00:40:35.930Z,25.20
2022-10-30T00:43:06.497Z,25.20
2022-10-30T00:45:36.461Z,25.20
2022-10-30T00:48:07.589Z,25.20
2022-10-30T00:50:38.568Z,25.20
2022-10-30T00:53:16.509Z,25.20
2022-10-30T00:55:52.789Z,25.20
2022-10-30T00:58:26.677Z,25.20
2022-10-30T01:00:57.275Z,25.10
2022-10-30T01:03:28.804Z,25.10
2022-10-30T01:06:02.411Z,25.10
2022-10-30T01:08:32.384Z,25.10
2022-10-30T01:11:02.487Z,25.10
2022-10-30T01:13:32.797Z,25.00
2022-10-30T01:16:11.354Z,25.00
2022-10-30T01:18:44.781Z,25.00
2022-10-30T01:21:28.176Z,25.10
2022-10-30T01:24:34.089Z,25.10
2022-10-30T01:27:32.237Z,25.00
2022-10-30T01:30:05.846Z,25.00
2022-10-30T01:33:11.467Z,25.00
2022-10-30T01:36:15.446Z,25.00
2022-10-30T01:39:05.215Z,25.00
2022-10-30T01:41:35.369Z,25.00
2022-10-30T01:44:16.260Z,25.00
2022-10-30T01:47:01.779Z,25.00
2022-10-30T01:49:54.281Z,25.00
2022-10-30T01:52:28.667Z,25.00
2022-10-30T01:54:58.822Z,25.00
2022-10-30T01:57:43.046Z,25.10
2022-10-30T02:00:16.932Z,25.00
2022-10-30T02:02:51.492Z,25.00
2022-10-30T02:05:50.405Z,25.00
2022-10-30T02:08:22.721Z,25.00
2022-10-30T02:10:54.142Z,25.00
2022-10-30T02:13:37.074Z,25.00
2022-10-30T02:16:07.523Z,25.00
2022-10-30T02:18:37.603Z,25.00
2022-10-30T02:21:09.891Z,25.10
2022-10-30T02:23:41.240Z,25.00
2022-10-30T02:26:11.316Z,25.00
2022-10-30T02:28:41.237Z,24.90
2022-10-30T02:31:11.221Z,24.90
2022-10-30T02:33:48.233Z,25.00
2022-10-30T02:36:18.177Z,25.00
2022-10-30T02:38:49.278Z,25.00
2022-10-30T02:41:19.472Z,25.00
2022-10-30T02:43:49.697Z,24.80
2022-10-30T02:46:19.901Z,24.70
2022-10-30T02:48:50.504Z,24.50
2022-10-30T02:51:20.536Z,24.40
2022-10-30T02:53:51.001Z,24.30
2022-10-30T02:56:21.025Z,24.30
2022-10-30T02:58:51.122Z,24.10
2022-10-30T03:01:21.465Z,24.10
2022-10-30T03:03:54.591Z,24.10
2022-10-30T03:06:25.894Z,24.10
2022-10-30T03:08:56.201Z,24.30
2022-10-30T03:11:26.247Z,24.30
2022-10-30T03:13:57.949Z,24.30
2022-10-30T03:16:30.546Z,24.30
2022-10-30T03:19:00.808Z,24.40
2022-10-30T03:21:31.065Z,24.40
2022-10-30T03:24:01.101Z,24.40
2022-10-30T03:26:31.197Z,24.50
2022-10-30T03:29:07.537Z,24.50
2022-10-30T03:31:37.804Z,24.50
2022-10-30T03:34:20.893Z,24.50
2022-10-30T03:36:51.193Z,24.50
2022-10-30T03:39:22.125Z,24.50
2022-10-30T03:41:52.135Z,24.50
2022-10-30T03:44:22.084Z,24.50
2022-10-30T03:46:53.117Z,24.60
2022-10-30T03:49:40.512Z,24.60
2022-10-30T03:52:14.384Z,24.60
2022-10-30T03:54:44.359Z,24.60
2022-10-30T03:57:17.015Z,24.60
2022-10-30T04:00:10.479Z,24.60
2022-10-30T04:03:09.339Z,24.60
2022-10-30T04:05:41.986Z,24.60
2022-10-30T04:08:16.151Z,24.60
2022-10-30T04:10:47.856Z,24.60
2022-10-30T04:13:19.021Z,24.60
2022-10-30T04:15:55.943Z,24.60
2022-10-30T04:18:29.199Z,24.60
2022-10-30T04:21:04.729Z,24.60
2022-10-30T04:23:40.350Z,24.70
2022-10-30T04:26:11.962Z,24.70
2022-10-30T04:28:43.417Z,24.70
2022-10-30T04:31:24.243Z,24.70
2022-10-30T04:33:54.413Z,24.70
2022-10-30T04:36:31.137Z,24.70
2022-10-30T04:39:03.628Z,24.70
2022-10-30T04:41:34.946Z,24.70
2022-10-30T04:44:11.240Z,24.70
2022-10-30T04:46:41.206Z,24.70
2022-10-30T04:49:13.324Z,24.70
2022-10-30T04:51:43.333Z,24.70
2022-10-30T04:54:13.353Z,24.70
2022-10-30T04:56:43.405Z,22.80
2022-10-30T04:59:13.698Z,21.50
2022-10-30T05:01:43.902Z,20.70
2022-10-30T05:04:14.623Z,20.00
2022-10-30T05:06:44.891Z,21.50
2022-10-30T05:09:20.303Z,22.50
2022-10-30T05:11:59.020Z,23.10
2022-10-30T05:14:34.206Z,23.40
2022-10-30T05:17:04.201Z,23.60
2022-10-30T05:19:36.028Z,23.70
2022-10-30T05:22:06.964Z,23.80
2022-10-30T05:24:43.078Z,23.90
2022-10-30T05:27:13.909Z,23.90
2022-10-30T05:29:45.630Z,24.00
2022-10-30T05:32:15.693Z,24.00
2022-10-30T05:34:50.015Z,24.00
2022-10-30T05:37:24.858Z,24.00
2022-10-30T05:39:55.755Z,24.10
2022-10-30T05:42:33.959Z,24.10
2022-10-30T05:45:08.855Z,24.10
2022-10-30T05:47:40.931Z,24.10
2022-10-30T05:50:17.180Z,24.10
2022-10-30T05:53:02.839Z,24.20
2022-10-30T05:55:36.746Z,24.20
2022-10-30T05:58:14.031Z,24.20
2022-10-30T06:00:46.631Z,24.20
2022-10-30T06:03:22.697Z,24.20
2022-10-30T06:05:53.795Z,24.20
2022-10-30T06:08:27.747Z,24.30
2022-10-30T06:11:02.393Z,24.30
2022-10-30T06:13:47.225Z,24.30
2022-10-30T06:16:19.555Z,24.30
2022-10-30T06:19:15.601Z,24.30
2022-10-30T06:21:56.091Z,24.30
2022-10-30T06:24:43.333Z,24.30
2022-10-30T06:27:22.259Z,24.30
2022-10-30T06:29:52.427Z,24.30
2022-10-30T06:32:23.653Z,24.40
2022-10-30T06:34:55.416Z,24.40
2022-10-30T06:37:27.784Z,24.40
2022-10-30T06:39:59.688Z,24.40
2022-10-30T06:43:05.033Z,24.40
2022-10-30T06:45:44.188Z,24.40
2022-10-30T06:48:20.682Z,24.80
2022-10-30T06:51:06.361Z,24.40
2022-10-30T06:53:42.282Z,24.40
2022-10-30T06:56:53.800Z,24.40
2022-10-30T06:59:49.596Z,24.50
2022-10-30T07:03:08.574Z,24.50
2022-10-30T07:05:41.890Z,24.50
2022-10-30T07:08:12.058Z,24.50
2022-10-30T07:10:42.502Z,24.50
2022-10-30T07:13:27.003Z,24.50
2022-10-30T07:16:02.372Z,24.50
2022-10-30T07:18:39.403Z,24.50
2022-10-30T07:21:12.721Z,24.50
2022-10-30T07:23:46.546Z,24.50
2022-10-30T07:26:31.123Z,24.50
2022-10-30T07:29:06.798Z,24.50
2022-10-30T07:32:02.302Z,24.50
2022-10-30T07:34:39.778Z,24.50
2022-10-30T07:37:48.001Z,24.10
2022-10-30T07:40:19.706Z,24.50
2022-10-30T07:43:03.905Z,24.50
2022-10-30T07:45:52.461Z,24.50
2022-10-30T07:49:01.124Z,24.50
2022-10-30T07:51:41.596Z,24.50
2022-10-30T07:54:12.334Z,24.60
2022-10-30T07:56:42.299Z,24.60
2022-10-30T07:59:42.754Z,24.50
2022-10-30T08:02:36.645Z,24.60
2022-10-30T08:05:38.395Z,24.60
2022-10-30T08:08:12.545Z,24.60
2022-10-30T08:10:43.158Z,24.60
2022-10-30T08:13:15.501Z,24.60
2022-10-30T08:15:45.788Z,24.60
2022-10-30T08:18:16.658Z,24.60
2022-10-30T08:20:53.086Z,24.60
2022-10-30T08:23:24.293Z,24.60
2022-10-30T08:25:55.531Z,24.60
2022-10-30T08:28:31.860Z,24.50
2022-10-30T08:31:05.138Z,24.60
2022-10-30T08:33:58.987Z,24.60
2022-10-30T08:36:53.033Z,24.60
2022-10-30T08:39:24.370Z,24.60
2022-10-30T08:42:01.140Z,24.60
2022-10-30T08:44:40.578Z,24.60
2022-10-30T08:47:47.777Z,24.60
2022-10-30T08:50:18.203Z,24.60
2022-10-30T08:52:54.858Z,24.60
2022-10-30T08:55:25.895Z,24.60
2022-10-30T08:57:56.298Z,24.60
2022-10-30T09:00:26.559Z,24.70
2022-10-30T09:03:19.536Z,24.60
2022-10-30T09:06:04.467Z,24.60
2022-10-30T09:08:56.933Z,24.70
2022-10-30T09:11:39.077Z,24.70
2022-10-30T09:14:09.133Z,24.70
2022-10-30T09:16:39.126Z,24.60
2022-10-30T09:19:17.690Z,24.60
2022-10-30T09:21:49.417Z,24.60
2022-10-30T09:24:20.338Z,24.70
2022-10-30T09:26:50.513Z,24.60
2022-10-30T09:29:28.071Z,24.70
2022-10-30T09:31:58.468Z,24.70
2022-10-30T09:34:30.308Z,24.70
2022-10-30T09:37:09.730Z,24.70
2022-10-30T09:39:41.356Z,24.70
2022-10-30T09:42:38.376Z,24.70
2022-10-30T09:45:43.064Z,24.70
2022-10-30T09:48:38.940Z,24.70
2022-10-30T09:51:29.430Z,24.70
2022-10-30T09:54:16.282Z,24.70
2022-10-30T09:57:17.504Z,24.70
2022-10-30T10:00:11.570Z,24.70
2022-10-30T10:03:29.643Z,24.70
2022-10-30T10:06:19.471Z,24.60
2022-10-30T10:09:22.988Z,24.70
2022-10-30T10:12:28.393Z,24.70
2022-10-30T10:14:58.776Z,24.70
2022-10-30T10:17:33.587Z,24.60
2022-10-30T10:20:07.298Z,24.60
2022-10-30T10:22:51.866Z,24.60
2022-10-30T10:25:22.682Z,24.60
2022-10-30T10:28:17.211Z,24.60
2022-10-30T10:31:14.822Z,24.60
2022-10-30T10:34:16.498Z,24.60
2022-10-30T10:37:02.667Z,24.60
2022-10-30T10:39:55.464Z,24.60
2022-10-30T10:42:37.244Z,24.60
2022-10-30T10:45:34.929Z,24.60
2022-10-30T10:48:20.369Z,24.60
2022-10-30T10:51:27.330Z,24.50
2022-10-30T10:54:08.076Z,24.60
2022-10-30T10:56:42.148Z,24.50
2022-10-30T10:59:18.420Z,24.60
2022-10-30T11:02:02.399Z,24.50
2022-10-30T11:04:43.054Z,24.00
2022-10-30T11:07:32.472Z,24.50
2022-10-30T11:10:02.912Z,24.50
2022-10-30T11:12:36.514Z,24.50
2022-10-30T11:15:34.880Z,24.50
2022-10-30T11:21:09.532Z,24.50
2022-10-30T11:23:49.574Z,24.60
2022-10-30T11:26:19.594Z,24.50
2022-10-30T11:29:12.557Z,24.50
2022-10-30T11:31:44.162Z,24.50
2022-10-30T11:34:27.147Z,24.50
2022-10-30T11:37:00.631Z,24.50
2022-10-30T11:39:33.435Z,24.50
2022-10-30T11:42:29.583Z,24.50
2022-10-30T11:44:59.503Z,24.60
2022-10-30T11:47:39.018Z,24.50
2022-10-30T11:50:33.091Z,24.50
2022-10-30T11:53:22.881Z,24.50
2022-10-30T11:55:53.926Z,24.50
2022-10-30T11:58:33.374Z,24.50
2022-10-30T12:01:03.988Z,24.50
2022-10-30T12:03:41.437Z,24.50
2022-10-30T12:06:26.941Z,24.50
2022-10-30T12:09:22.313Z,24.50
2022-10-30T12:11:52.611Z,24.40
2022-10-30T12:14:24.059Z,24.50
2022-10-30T12:16:55.102Z,24.40
2022-10-30T12:19:26.433Z,24.50
2022-10-30T12:22:06.334Z,24.40
2022-10-30T12:24:40.669Z,24.50
2022-10-30T12:27:19.602Z,24.40
2022-10-30T12:30:08.994Z,24.40
2022-10-30T12:33:04.483Z,24.40
2022-10-30T12:35:50.080Z,24.30
2022-10-30T12:38:32.478Z,24.40
2022-10-30T12:41:14.676Z,24.40
2022-10-30T12:43:45.997Z,24.40
2022-10-30T12:46:30.161Z,24.40
2022-10-30T12:49:16.237Z,24.40
2022-10-30T12:52:06.261Z,24.40
2022-10-30T12:54:51.600Z,24.40
2022-10-30T12:57:27.553Z,24.40
2022-10-30T13:00:17.080Z,24.40
2022-10-30T13:03:02.811Z,24.40
2022-10-30T13:05:41.439Z,24.40
2022-10-30T13:08:41.357Z,24.40
2022-10-30T13:11:20.548Z,24.40
2022-10-30T13:13:54.338Z,24.40
2022-10-30T13:16:28.202Z,24.40
2022-10-30T13:19:10.362Z,24.40
2022-10-30T13:22:09.655Z,24.40
2022-10-30T13:24:39.621Z,24.40
2022-10-30T13:27:17.176Z,24.40
2022-10-30T13:30:03.537Z,24.40
2022-10-30T13:32:39.499Z,24.40
2022-10-30T13:35:12.565Z,24.40
2022-10-30T13:37:49.265Z,24.40
2022-10-30T13:40:36.201Z,24.40
2022-10-30T13:43:19.312Z,24.40
2022-10-30T13:45:57.310Z,24.40
2022-10-30T13:48:52.252Z,24.40
2022-10-30T13:51:27.907Z,24.40
2022-10-30T13:54:34.027Z,24.40
2022-10-30T13:57:11.771Z,24.40
2022-10-30T14:00:03.077Z,24.40
2022-10-30T14:02:49.933Z,24.40
2022-10-30T14:05:32.217Z,24.40
2022-10-30T14:08:08.140Z,24.40
2022-10-30T14:10:47.313Z,24.40
2022-10-30T14:13:30.614Z,24.40
2022-10-30T14:16:08.154Z,24.40
2022-10-30T14:19:00.748Z,24.40
2022-10-30T14:21:46.612Z,24.50
2022-10-30T14:24:21.833Z,24.50
2022-10-30T14:26:55.895Z,24.50
2022-10-30T14:29:50.632Z,24.50
2022-10-30T14:32:20.685Z,24.60
2022-10-30T14:34:55.876Z,24.60
2022-10-30T14:37:28.194Z,24.60
2022-10-30T14:40:00.046Z,24.60
2022-10-30T14:42:46.440Z,24.60
2022-10-30T14:45:26.267Z,24.60
2022-10-30T14:48:15.378Z,24.60
2022-10-30T14:51:01.316Z,24.60
2022-10-30T14:53:56.096Z,24.60
2022-10-30T14:56:49.634Z,24.70
2022-10-30T14:59:19.660Z,24.60
2022-10-30T15:02:14.031Z,24.70
2022-10-30T15:05:09.585Z,24.60
2022-10-30T15:07:58.123Z,24.70
2022-10-30T15:10:37.590Z,24.70
2022-10-30T15:13:29.033Z,24.60
2022-10-30T15:16:09.853Z,24.60
2022-10-30T15:18:39.992Z,24.70
2022-10-30T15:21:10.158Z,24.70
2022-10-30T15:23:40.187Z,24.70
2022-10-30T15:26:16.640Z,24.70
2022-10-30T15:28:46.539Z,24.70
2022-10-30T15:31:19.579Z,24.70
2022-10-30T15:33:49.643Z,24.70
2022-10-30T15:36:24.107Z,24.70
2022-10-30T15:39:20.954Z,24.70
2022-10-30T15:42:01.433Z,24.80
2022-10-30T15:44:33.795Z,24.90
2022-10-30T15:47:04.816Z,24.90
2022-10-30T15:49:39.443Z,24.90
2022-10-30T15:52:24.252Z,25.00
2022-10-30T15:55:00.629Z,25.00
2022-10-30T15:58:02.404Z,25.10
2022-10-30T16:00:37.665Z,25.00
2022-10-30T16:03:13.849Z,25.10
2022-10-30T16:05:44.067Z,24.70
2022-10-30T16:08:24.649Z,19.80
2022-10-30T16:10:55.735Z,21.60
2022-10-30T16:13:32.059Z,23.00
2022-10-30T16:16:02.913Z,23.50
2022-10-30T16:18:33.671Z,24.00
2022-10-30T16:21:07.405Z,24.20
2022-10-30T16:23:57.292Z,24.30
2022-10-30T16:26:34.160Z,24.30
2022-10-30T16:29:20.264Z,24.40
2022-10-30T16:31:54.582Z,25.10
2022-10-30T16:34:33.702Z,24.40
2022-10-30T16:37:07.950Z,24.40
2022-10-30T16:39:38.114Z,24.40
2022-10-30T16:42:08.237Z,24.40
2022-10-30T16:44:38.257Z,24.50
2022-10-30T16:47:18.296Z,24.50
2022-10-30T16:49:49.963Z,24.50
2022-10-30T16:52:20.496Z,24.50
2022-10-30T16:54:56.462Z,24.50
2022-10-30T16:57:31.892Z,24.50
2022-10-30T17:00:02.808Z,24.50
2022-10-30T17:02:35.600Z,24.50
2022-10-30T17:05:13.911Z,24.50
2022-10-30T17:07:44.128Z,24.50
2022-10-30T17:10:36.765Z,24.50
2022-10-30T17:13:54.059Z,24.50
2022-10-30T17:16:58.797Z,24.50
2022-10-30T17:19:34.518Z,24.50
2022-10-30T17:22:05.844Z,24.50
2022-10-30T17:24:37.170Z,24.50
2022-10-30T17:27:08.480Z,24.50
2022-10-30T17:29:41.153Z,24.50
2022-10-30T17:32:43.805Z,24.50
2022-10-30T17:35:20.676Z,24.50
2022-10-30T17:37:50.867Z,24.50
2022-10-30T17:40:21.562Z,24.50
2022-10-30T17:42:51.549Z,24.50
2022-10-30T17:45:22.739Z,24.50
2022-10-30T17:47:53.128Z,24.60
2022-10-30T17:50:23.192Z,24.60
2022-10-30T17:52:53.413Z,24.60
2022-10-30T17:55:29.268Z,24.60
2022-10-30T17:57:59.338Z,24.60
2022-10-30T18:00:29.364Z,24.60
2022-10-30T18:02:59.451Z,24.60
2022-10-30T18:05:31.343Z,24.60
2022-10-30T18:08:01.373Z,24.60
2022-10-30T18:10:32.025Z,24.60
2022-10-30T18:13:02.396Z,24.60
2022-10-30T18:15:43.191Z,24.60
2022-10-30T18:18:13.308Z,24.60
2022-10-30T18:20:43.200Z,24.60
2022-10-30T18:26:18.004Z,24.60
2022-10-30T18:28:48.484Z,24.60
2022-10-30T18:31:21.991Z,24.60
2022-10-30T18:33:52.097Z,24.50
2022-10-30T18:36:23.627Z,24.60
2022-10-30T18:38:53.974Z,24.60
2022-10-30T18:41:28.994Z,24.60
2022-10-30T18:43:59.095Z,25.10
2022-10-30T18:46:35.172Z,24.60
2022-10-30T18:49:05.175Z,24.60
2022-10-30T18:51:35.193Z,24.60
2022-10-30T18:54:05.244Z,24.60
2022-10-30T18:56:35.143Z,24.60
2022-10-30T18:59:05.042Z,24.60
2022-10-30T19:01:37.536Z,24.60
2022-10-30T19:04:17.936Z,24.60
2022-10-30T19:06:50.885Z,24.60
2022-10-30T19:09:20.850Z,24.60
2022-10-30T19:11:50.863Z,24.60
2022-10-30T19:14:21.303Z,24.60
2022-10-30T19:16:51.404Z,24.60
2022-10-30T19:19:21.386Z,24.60
2022-10-30T19:21:51.744Z,24.60
2022-10-30T19:24:21.796Z,24.60
2022-10-30T19:26:51.788Z,24.60
2022-10-30T19:29:21.828Z,24.60
2022-10-30T19:31:51.837Z,24.60
2022-10-30T19:34:21.797Z,24.60
2022-10-30T19:36:51.741Z,24.60
2022-10-30T19:39:21.721Z,24.60
2022-10-30T19:41:51.724Z,24.60
2022-10-30T19:44:21.667Z,24.60
2022-10-30T19:46:51.523Z,24.60
2022-10-30T19:49:21.960Z,24.60
2022-10-30T19:51:51.900Z,24.60
2022-10-30T19:54:21.848Z,24.60
2022-10-30T19:56:51.800Z,24.60
2022-10-30T19:59:21.827Z,24.60
2022-10-30T20:01:51.941Z,24.60
2022-10-30T20:04:21.923Z,24.60
2022-10-30T20:06:51.985Z,24.60
2022-10-30T20:09:22.260Z,24.60
2022-10-30T20:11:52.180Z,24.60
2022-10-30T20:14:22.187Z,24.60
2022-10-30T20:16:52.211Z,24.60
2022-10-30T20:19:40.517Z,24.60
2022-10-30T20:22:12.647Z,24.60
2022-10-30T20:24:42.566Z,24.60
2022-10-30T20:27:12.613Z,24.60
2022-10-30T20:29:42.649Z,24.60
2022-10-30T20:32:12.638Z,24.60
2022-10-30T20:34:42.710Z,24.60
2022-10-30T20:37:12.691Z,24.60
2022-10-30T20:39:42.620Z,24.60
2022-10-30T20:42:12.823Z,24.60
2022-10-30T20:44:42.727Z,24.60
2022-10-30T20:47:12.626Z,24.60
2022-10-30T20:49:42.683Z,24.60
2022-10-30T20:52:13.374Z,24.60
2022-10-30T20:54:43.632Z,24.70
2022-10-30T20:57:13.690Z,24.60
2022-10-30T20:59:43.633Z,24.60
2022-10-30T21:02:13.958Z,24.60
2022-10-30T21:04:44.081Z,24.60
2022-10-30T21:07:14.024Z,24.60
2022-10-30T21:09:44.019Z,24.60
2022-10-30T21:12:14.067Z,24.60
2022-10-30T21:14:44.039Z,24.60
2022-10-30T21:17:13.955Z,24.60
2022-10-30T21:19:43.873Z,24.60
2022-10-30T21:22:13.865Z,24.60
2022-10-30T21:24:44.047Z,24.60
2022-10-30T21:27:13.938Z,24.60
2022-10-30T21:29:47.291Z,24.60
2022-10-30T21:32:16.834Z,24.60
2022-10-30T21:34:46.717Z,24.60
2022-10-30T21:37:16.818Z,24.60
2022-10-30T21:39:46.924Z,24.60
2022-10-30T21:42:17.262Z,24.60
2022-10-30T21:44:47.307Z,24.60
2022-10-30T21:47:17.622Z,24.60
2022-10-30T21:49:47.546Z,24.60
2022-10-30T21:52:17.602Z,24.60
2022-10-30T21:54:47.535Z,24.60
2022-10-30T21:57:17.575Z,24.60
2022-10-30T21:59:47.607Z,24.60
2022-10-30T22:02:18.029Z,24.60
2022-10-30T22:04:49.700Z,24.60
2022-10-30T22:07:20.391Z,24.70
2022-10-30T22:09:50.309Z,24.60
2022-10-30T22:12:20.233Z,24.60
2022-10-30T22:14:50.163Z,24.60
2022-10-30T22:17:20.286Z,24.60
2022-10-30T22:19:50.764Z,24.60
2022-10-30T22:22:20.677Z,24.60
2022-10-30T22:24:50.684Z,24.60
2022-10-30T22:27:20.703Z,24.60
2022-10-30T22:29:50.875Z,24.60
2022-10-30T22:32:20.868Z,24.60
2022-10-30T22:34:50.865Z,24.60
2022-10-30T22:37:20.977Z,24.60
2022-10-30T22:39:50.998Z,24.60
2022-10-30T22:42:23.125Z,24.60
2022-10-30T22:44:53.224Z,24.60
2022-10-30T22:47:23.105Z,24.60
2022-10-30T22:49:53.115Z,24.60
2022-10-30T22:52:23.096Z,24.60
2022-10-30T22:54:53.120Z,24.60
2022-10-30T22:57:23.083Z,24.60
2022-10-30T22:59:53.025Z,24.60
2022-10-30T23:02:22.959Z,24.60
2022-10-30T23:04:52.895Z,24.60
2022-10-30T23:07:22.791Z,24.60
2022-10-30T23:09:52.874Z,24.60
2022-10-30T23:12:23.197Z,24.60
2022-10-30T23:14:55.902Z,24.60
2022-10-30T23:17:27.918Z,24.60
2022-10-30T23:20:01.102Z,24.60
2022-10-30T23:22:31.355Z,24.60
2022-10-30T23:25:01.438Z,24.60
2022-10-30T23:27:31.395Z,24.60
2022-10-30T23:30:01.382Z,24.60
2022-10-30T23:32:31.493Z,24.60
2022-10-30T23:35:01.570Z,24.60
2022-10-30T23:37:31.560Z,24.60
2022-10-30T23:40:01.441Z,24.60
2022-10-30T23:42:31.477Z,24.60
2022-10-30T23:45:01.624Z,24.60
2022-10-30T23:47:41.230Z,26.00
2022-10-30T23:50:15.873Z,24.60
2022-10-30T23:52:46.184Z,24.60
2022-10-30T23:55:16.443Z,24.60
2022-10-30T23:57:50.181Z,24.60
